createdAt,value
2022-08-27T00:00:16.649Z,14.14
2022-08-27T00:02:43.862Z,14.10
2022-08-27T00:05:12.296Z,14.04
2022-08-27T00:07:39.850Z,14.01
2022-08-27T00:10:08.503Z,14.01
2022-08-27T00:12:36.434Z,13.98
2022-08-27T00:15:05.786Z,13.98
2022-08-27T00:17:33.492Z,13.94
2022-08-27T00:20:00.071Z,13.91
2022-08-27T00:22:26.646Z,13.94
2022-08-27T00:24:53.229Z,13.92
2022-08-27T00:27:19.846Z,13.91
2022-08-27T00:29:47.921Z,13.90
2022-08-27T00:32:15.755Z,13.91
2022-08-27T00:34:42.575Z,13.91
2022-08-27T00:37:09.176Z,13.89
2022-08-27T00:39:37.149Z,13.86
2022-08-27T00:42:07.154Z,13.81
2022-08-27T00:44:33.811Z,13.76
2022-08-27T00:47:05.434Z,13.73
2022-08-27T00:49:38.720Z,13.69
2022-08-27T00:52:11.984Z,13.64
2022-08-27T00:54:38.857Z,13.64
2022-08-27T00:57:06.496Z,13.65
2022-08-27T00:59:33.183Z,13.69
2022-08-27T01:02:18.937Z,13.69
2022-08-27T01:05:00.630Z,13.60
2022-08-27T01:07:31.907Z,13.53
2022-08-27T01:10:01.210Z,13.48
2022-08-27T01:12:30.318Z,13.45
2022-08-27T01:14:57.598Z,13.40
2022-08-27T01:17:25.072Z,13.40
2022-08-27T01:19:57.220Z,13.35
2022-08-27T01:22:48.949Z,13.32
2022-08-27T01:25:18.514Z,13.32
2022-08-27T01:27:46.087Z,13.32
2022-08-27T01:30:15.983Z,13.31
2022-08-27T01:32:43.439Z,13.30
2022-08-27T01:35:13.156Z,13.26
2022-08-27T01:37:41.898Z,13.24
2022-08-27T01:40:09.757Z,13.17
2022-08-27T01:42:43.262Z,13.12
2022-08-27T01:45:13.752Z,13.10
2022-08-27T01:47:41.204Z,13.08
2022-08-27T01:50:31.879Z,13.09
2022-08-27T01:53:03.562Z,13.10
2022-08-27T01:55:30.196Z,13.06
2022-08-27T01:57:57.080Z,13.03
2022-08-27T02:00:27.397Z,13.02
2022-08-27T02:02:54.584Z,13.03
2022-08-27T02:05:21.820Z,13.03
2022-08-27T02:07:48.669Z,13.01
2022-08-27T02:10:20.783Z,13.01
2022-08-27T02:12:47.723Z,13.01
2022-08-27T02:15:14.793Z,12.99
2022-08-27T02:17:41.789Z,12.94
2022-08-27T02:20:11.038Z,12.87
2022-08-27T02:22:38.717Z,12.84
2022-08-27T02:25:07.158Z,12.87
2022-08-27T02:27:37.153Z,12.87
2022-08-27T02:30:05.757Z,12.85
2022-08-27T02:32:32.956Z,12.81
2022-08-27T02:35:00.126Z,12.77
2022-08-27T02:37:27.756Z,12.72
2022-08-27T02:39:54.407Z,12.67
2022-08-27T02:42:21.184Z,12.62
2022-08-27T02:44:48.415Z,12.57
2022-08-27T02:47:16.786Z,12.54
2022-08-27T02:49:44.554Z,12.56
2022-08-27T02:52:11.290Z,12.58
2022-08-27T02:54:37.841Z,12.64
2022-08-27T02:57:05.496Z,12.66
2022-08-27T02:59:32.056Z,12.68
2022-08-27T03:01:58.714Z,12.65
2022-08-27T03:04:25.388Z,12.61
2022-08-27T03:06:51.940Z,12.59
2022-08-27T03:09:18.551Z,12.56
2022-08-27T03:11:45.131Z,12.50
2022-08-27T03:14:12.894Z,12.51
2022-08-27T03:16:41.075Z,12.53
2022-08-27T03:19:08.638Z,12.51
2022-08-27T03:21:35.692Z,12.46
2022-08-27T03:24:11.656Z,12.45
2022-08-27T03:26:41.279Z,12.44
2022-08-27T03:29:07.991Z,12.41
2022-08-27T03:31:34.901Z,12.38
2022-08-27T03:34:04.046Z,12.33
2022-08-27T03:36:31.507Z,12.29
2022-08-27T03:38:58.753Z,12.27
2022-08-27T03:41:54.133Z,12.25
2022-08-27T03:44:21.266Z,12.20
2022-08-27T03:46:49.368Z,12.18
2022-08-27T03:49:20.389Z,12.18
2022-08-27T03:51:48.851Z,12.17
2022-08-27T03:54:15.403Z,12.18
2022-08-27T03:56:42.008Z,12.18
2022-08-27T03:59:08.916Z,12.17
2022-08-27T04:01:36.020Z,12.15
2022-08-27T04:04:03.227Z,12.15
2022-08-27T04:06:29.812Z,12.16
2022-08-27T04:08:56.555Z,12.21
2022-08-27T04:11:23.445Z,12.28
2022-08-27T04:13:50.053Z,12.30
2022-08-27T04:16:16.954Z,12.27
2022-08-27T04:18:43.549Z,12.27
2022-08-27T04:21:12.673Z,12.28
2022-08-27T04:23:40.048Z,12.24
2022-08-27T04:26:08.244Z,12.25
2022-08-27T04:28:38.410Z,12.24
2022-08-27T04:31:12.875Z,12.25
2022-08-27T04:33:50.644Z,12.24
2022-08-27T04:36:18.202Z,12.26
2022-08-27T04:38:44.813Z,12.28
2022-08-27T04:41:21.412Z,12.28
2022-08-27T04:43:57.529Z,12.31
2022-08-27T04:46:29.642Z,12.34
2022-08-27T04:48:58.041Z,12.34
2022-08-27T04:51:25.770Z,12.37
2022-08-27T04:53:52.831Z,12.41
2022-08-27T04:56:22.737Z,12.44
2022-08-27T04:58:51.429Z,12.45
2022-08-27T05:01:20.502Z,12.48
2022-08-27T05:03:47.278Z,12.48
2022-08-27T05:06:13.879Z,12.53
2022-08-27T05:08:40.734Z,12.58
2022-08-27T05:11:10.505Z,12.62
2022-08-27T05:13:38.139Z,12.63
2022-08-27T05:16:08.255Z,12.67
2022-08-27T05:18:42.196Z,12.70
2022-08-27T05:21:24.151Z,12.74
2022-08-27T05:23:52.057Z,12.77
2022-08-27T05:26:18.642Z,12.82
2022-08-27T05:28:45.525Z,12.88
2022-08-27T05:31:14.292Z,12.92
2022-08-27T05:33:42.487Z,12.97
2022-08-27T05:36:19.815Z,13.03
2022-08-27T05:38:49.063Z,13.08
2022-08-27T05:41:17.768Z,13.13
2022-08-27T05:43:49.700Z,13.20
2022-08-27T05:46:19.075Z,13.26
2022-08-27T05:48:46.434Z,13.34
2022-08-27T05:51:16.202Z,13.43
2022-08-27T05:53:54.654Z,13.46
2022-08-27T05:56:21.992Z,13.54
2022-08-27T05:59:08.260Z,13.61
2022-08-27T06:01:42.418Z,13.69
2022-08-27T06:04:09.605Z,13.78
2022-08-27T06:06:40.999Z,13.86
2022-08-27T06:09:08.906Z,13.94
2022-08-27T06:11:35.687Z,14.01
2022-08-27T06:14:02.419Z,14.11
2022-08-27T06:16:29.080Z,14.18
2022-08-27T06:18:57.372Z,14.27
2022-08-27T06:21:25.024Z,14.35
2022-08-27T06:23:52.537Z,14.45
2022-08-27T06:26:20.807Z,14.55
2022-08-27T06:28:47.578Z,14.65
2022-08-27T06:31:18.363Z,14.75
2022-08-27T06:33:46.934Z,14.83
2022-08-27T06:36:16.421Z,14.93
2022-08-27T06:38:43.823Z,15.02
2022-08-27T06:41:23.140Z,15.13
2022-08-27T06:43:50.248Z,15.23
2022-08-27T06:46:20.348Z,15.33
2022-08-27T06:48:48.482Z,15.45
2022-08-27T06:51:24.532Z,15.55
2022-08-27T06:53:52.748Z,15.63
2022-08-27T06:56:19.904Z,15.72
2022-08-27T06:58:46.564Z,15.88
2022-08-27T07:01:19.020Z,16.03
2022-08-27T07:03:46.097Z,16.15
2022-08-27T07:06:16.612Z,16.29
2022-08-27T07:08:44.852Z,16.40
2022-08-27T07:11:20.878Z,16.46
2022-08-27T07:13:48.984Z,16.59
2022-08-27T07:16:23.286Z,16.79
2022-08-27T07:18:52.523Z,16.92
2022-08-27T07:21:22.435Z,16.99
2022-08-27T07:23:52.045Z,17.07
2022-08-27T07:26:19.944Z,17.13
2022-08-27T07:28:47.403Z,17.31
2022-08-27T07:31:17.175Z,17.43
2022-08-27T07:33:50.625Z,17.51
2022-08-27T07:36:19.373Z,17.70
2022-08-27T07:38:56.629Z,17.92
2022-08-27T07:41:30.529Z,18.15
2022-08-27T07:44:34.528Z,18.32
2022-08-27T07:47:02.502Z,18.52
2022-08-27T07:49:30.121Z,18.79
2022-08-27T07:51:57.064Z,18.89
2022-08-27T07:54:24.079Z,19.01
2022-08-27T07:56:55.350Z,19.13
2022-08-27T07:59:24.153Z,19.30
2022-08-27T08:01:51.618Z,19.56
2022-08-27T08:04:20.292Z,19.64
2022-08-27T08:06:47.141Z,19.63
2022-08-27T08:09:13.701Z,19.76
2022-08-27T08:11:41.671Z,19.87
2022-08-27T08:14:08.301Z,19.92
2022-08-27T08:16:34.950Z,20.14
2022-08-27T08:19:02.131Z,20.28
2022-08-27T08:21:29.066Z,20.32
2022-08-27T08:23:55.775Z,20.56
2022-08-27T08:26:23.251Z,20.61
2022-08-27T08:28:49.858Z,20.69
2022-08-27T08:31:16.599Z,20.87
2022-08-27T08:33:43.265Z,21.06
2022-08-27T08:36:13.516Z,21.25
2022-08-27T08:38:41.355Z,21.53
2022-08-27T08:41:25.791Z,21.55
2022-08-27T08:43:52.500Z,21.63
2022-08-27T08:46:34.654Z,21.94
2022-08-27T08:49:06.232Z,22.16
2022-08-27T08:51:40.603Z,22.26
2022-08-27T08:54:14.385Z,22.45
2022-08-27T08:56:45.930Z,22.50
2022-08-27T08:59:25.019Z,22.60
2022-08-27T09:01:52.119Z,23.02
2022-08-27T09:04:18.777Z,23.07
2022-08-27T09:06:56.695Z,23.20
2022-08-27T09:09:36.052Z,23.23
2022-08-27T09:12:19.265Z,23.19
2022-08-27T09:14:48.518Z,23.18
2022-08-27T09:17:15.125Z,23.29
2022-08-27T09:19:43.025Z,23.51
2022-08-27T09:22:30.202Z,23.79
2022-08-27T09:25:11.742Z,24.07
2022-08-27T09:27:41.755Z,24.17
2022-08-27T09:30:12.247Z,24.18
2022-08-27T09:32:40.217Z,24.34
2022-08-27T09:35:11.298Z,24.49
2022-08-27T09:37:48.133Z,24.65
2022-08-27T09:40:29.219Z,24.78
2022-08-27T09:43:07.871Z,24.80
2022-08-27T09:45:35.417Z,24.81
2022-08-27T09:48:07.590Z,24.91
2022-08-27T09:50:45.741Z,24.98
2022-08-27T09:53:25.449Z,25.11
2022-08-27T09:56:01.327Z,25.28
2022-08-27T09:58:32.011Z,25.37
2022-08-27T10:01:16.306Z,25.36
2022-08-27T10:03:43.594Z,25.37
2022-08-27T10:06:11.385Z,25.36
2022-08-27T10:08:48.695Z,25.36
2022-08-27T10:11:23.744Z,25.49
2022-08-27T10:14:03.086Z,25.64
2022-08-27T10:17:00.798Z,25.64
2022-08-27T10:20:03.763Z,25.59
2022-08-27T10:22:36.023Z,25.54
2022-08-27T10:25:17.075Z,25.49
2022-08-27T10:28:20.465Z,25.47
2022-08-27T10:31:08.405Z,25.60
2022-08-27T10:34:03.877Z,25.62
2022-08-27T10:36:54.811Z,25.71
2022-08-27T10:39:41.960Z,25.62
2022-08-27T10:42:11.557Z,25.56
2022-08-27T10:45:04.320Z,25.47
2022-08-27T10:47:49.248Z,25.44
2022-08-27T10:50:30.605Z,25.44
2022-08-27T10:53:11.715Z,25.45
2022-08-27T10:55:45.964Z,25.56
2022-08-27T10:58:21.543Z,25.71
2022-08-27T11:01:03.815Z,25.73
2022-08-27T11:03:39.623Z,25.85
2022-08-27T11:06:24.908Z,25.93
2022-08-27T11:08:58.613Z,25.96
2022-08-27T11:12:13.220Z,26.07
2022-08-27T11:14:38.935Z,26.18
2022-08-27T11:17:13.398Z,26.25
2022-08-27T11:20:03.887Z,26.28
2022-08-27T11:22:37.478Z,26.36
2022-08-27T11:25:22.394Z,26.42
2022-08-27T11:27:54.338Z,26.50
2022-08-27T11:30:30.083Z,26.56
2022-08-27T11:33:15.447Z,26.68
2022-08-27T11:35:56.964Z,26.76
2022-08-27T11:38:43.091Z,26.76
2022-08-27T11:41:45.226Z,26.94
2022-08-27T11:44:14.753Z,27.00
2022-08-27T11:46:56.679Z,26.96
2022-08-27T11:49:43.472Z,27.10
2022-08-27T11:52:11.113Z,27.23
2022-08-27T11:54:51.017Z,27.37
2022-08-27T11:57:30.445Z,27.39
2022-08-27T11:59:57.407Z,27.46
2022-08-27T12:02:29.527Z,27.53
2022-08-27T12:05:26.497Z,27.60
2022-08-27T12:07:53.615Z,27.74
2022-08-27T12:10:38.390Z,27.89
2022-08-27T12:13:17.581Z,28.00
2022-08-27T12:16:07.947Z,28.12
2022-08-27T12:19:19.140Z,28.17
2022-08-27T12:22:19.177Z,28.22
2022-08-27T12:24:50.612Z,28.22
2022-08-27T12:27:24.516Z,28.14
2022-08-27T12:29:58.363Z,27.99
2022-08-27T12:32:44.382Z,27.96
2022-08-27T12:35:19.259Z,28.04
2022-08-27T12:38:07.222Z,28.11
2022-08-27T12:40:54.875Z,28.09
2022-08-27T12:43:30.048Z,28.05
2022-08-27T12:46:08.509Z,28.00
2022-08-27T12:48:42.563Z,28.01
2022-08-27T12:51:32.915Z,28.06
2022-08-27T12:54:33.272Z,28.18
2022-08-27T12:57:27.755Z,28.29
2022-08-27T13:00:05.086Z,28.38
2022-08-27T13:02:37.448Z,28.44
2022-08-27T13:05:10.471Z,28.48
2022-08-27T13:07:43.392Z,28.58
2022-08-27T13:10:16.660Z,28.62
2022-08-27T13:12:45.441Z,28.64
2022-08-27T13:15:16.094Z,28.70
2022-08-27T13:17:45.694Z,28.61
2022-08-27T13:20:20.647Z,28.45
2022-08-27T13:22:47.783Z,28.48
2022-08-27T13:25:23.609Z,28.59
2022-08-27T13:27:57.226Z,28.54
2022-08-27T13:30:35.587Z,28.47
2022-08-27T13:33:06.195Z,28.45
2022-08-27T13:35:33.451Z,28.56
2022-08-27T13:38:03.635Z,28.55
2022-08-27T13:40:37.092Z,28.42
2022-08-27T13:43:12.346Z,28.29
2022-08-27T13:45:41.744Z,28.18
2022-08-27T13:48:10.511Z,28.14
2022-08-27T13:50:37.372Z,28.15
2022-08-27T13:53:27.609Z,28.19
2022-08-27T13:55:56.592Z,28.26
2022-08-27T13:58:32.185Z,28.26
2022-08-27T14:01:16.431Z,28.24
2022-08-27T14:03:49.980Z,28.10
2022-08-27T14:06:47.767Z,28.02
2022-08-27T14:09:28.781Z,27.96
2022-08-27T14:12:05.107Z,27.94
2022-08-27T14:14:39.014Z,27.87
2022-08-27T14:17:08.870Z,27.82
2022-08-27T14:19:37.052Z,27.73
2022-08-27T14:22:04.257Z,27.63
2022-08-27T14:24:30.879Z,27.61
2022-08-27T14:27:06.076Z,27.60
2022-08-27T14:29:32.658Z,27.55
2022-08-27T14:31:59.223Z,27.57
2022-08-27T14:34:25.790Z,27.58
2022-08-27T14:36:54.830Z,27.56
2022-08-27T14:39:26.088Z,27.52
2022-08-27T14:41:53.357Z,27.48
2022-08-27T14:44:21.876Z,27.45
2022-08-27T14:46:49.022Z,27.46
2022-08-27T14:49:27.737Z,27.48
2022-08-27T14:51:54.424Z,27.54
2022-08-27T14:54:21.025Z,27.58
2022-08-27T14:56:47.684Z,27.56
2022-08-27T14:59:14.319Z,27.58
2022-08-27T15:01:41.066Z,27.66
2022-08-27T15:04:07.829Z,27.71
2022-08-27T15:06:34.586Z,27.71
2022-08-27T15:09:01.616Z,27.70
2022-08-27T15:11:31.447Z,27.68
2022-08-27T15:14:00.196Z,27.73
2022-08-27T15:16:28.281Z,27.73
2022-08-27T15:19:00.873Z,27.78
2022-08-27T15:21:30.626Z,27.80
2022-08-27T15:24:01.318Z,27.82
2022-08-27T15:26:28.543Z,27.84
2022-08-27T15:28:55.334Z,27.88
2022-08-27T15:31:22.312Z,27.90
2022-08-27T15:33:49.362Z,27.90
2022-08-27T15:36:15.976Z,27.86
2022-08-27T15:38:42.660Z,27.87
2022-08-27T15:41:10.393Z,27.82
2022-08-27T15:43:38.888Z,27.88
2022-08-27T15:46:05.867Z,27.97
2022-08-27T15:48:32.741Z,28.02
2022-08-27T15:51:04.927Z,28.01
2022-08-27T15:53:31.802Z,27.98
2022-08-27T15:55:58.587Z,27.96
2022-08-27T15:58:29.014Z,27.96
2022-08-27T16:01:01.435Z,27.92
2022-08-27T16:03:35.466Z,27.87
2022-08-27T16:06:04.757Z,27.80
2022-08-27T16:08:36.604Z,27.74
2022-08-27T16:11:03.928Z,27.65
2022-08-27T16:13:31.200Z,27.56
2022-08-27T16:15:58.096Z,27.46
2022-08-27T16:18:30.684Z,27.30
2022-08-27T16:20:59.787Z,27.19
2022-08-27T16:23:27.151Z,27.01
2022-08-27T16:25:54.967Z,26.89
2022-08-27T16:28:22.068Z,26.82
2022-08-27T16:30:50.116Z,26.78
2022-08-27T16:33:16.720Z,26.68
2022-08-27T16:35:43.394Z,26.59
2022-08-27T16:38:11.774Z,26.48
2022-08-27T16:40:48.846Z,26.35
2022-08-27T16:43:24.587Z,26.24
2022-08-27T16:45:53.812Z,26.12
2022-08-27T16:48:39.954Z,26.02
2022-08-27T16:51:17.496Z,25.88
2022-08-27T16:53:45.172Z,25.76
2022-08-27T16:56:11.870Z,25.62
2022-08-27T16:58:40.525Z,25.49
2022-08-27T17:01:10.641Z,25.35
2022-08-27T17:04:07.685Z,25.21
2022-08-27T17:06:33.940Z,25.01
2022-08-27T17:09:04.792Z,24.87
2022-08-27T17:11:34.626Z,24.71
2022-08-27T17:14:02.463Z,24.55
2022-08-27T17:16:31.801Z,24.43
2022-08-27T17:19:01.184Z,24.29
2022-08-27T17:21:30.126Z,24.19
2022-08-27T17:23:59.429Z,24.07
2022-08-27T17:26:26.230Z,23.94
2022-08-27T17:28:53.038Z,23.79
2022-08-27T17:31:27.980Z,23.72
2022-08-27T17:33:58.131Z,23.61
2022-08-27T17:36:28.705Z,23.51
2022-08-27T17:38:55.491Z,23.42
2022-08-27T17:41:25.576Z,23.34
2022-08-27T17:43:53.125Z,23.23
2022-08-27T17:46:19.784Z,23.11
2022-08-27T17:48:46.346Z,23.01
2022-08-27T17:51:13.424Z,22.92
2022-08-27T17:53:47.280Z,22.85
2022-08-27T17:56:19.140Z,22.80
2022-08-27T17:58:46.913Z,22.69
2022-08-27T18:01:15.992Z,22.58
2022-08-27T18:03:44.912Z,22.51
2022-08-27T18:06:15.696Z,22.39
2022-08-27T18:08:42.381Z,22.29
2022-08-27T18:11:11.262Z,22.19
2022-08-27T18:13:38.030Z,22.05
2022-08-27T18:16:05.609Z,22.02
2022-08-27T18:18:34.051Z,22.03
2022-08-27T18:21:01.356Z,21.97
2022-08-27T18:23:28.020Z,21.90
2022-08-27T18:25:55.769Z,21.84
2022-08-27T18:28:23.112Z,21.73
2022-08-27T18:30:50.669Z,21.65
2022-08-27T18:33:17.414Z,21.54
2022-08-27T18:35:44.154Z,21.41
2022-08-27T18:38:11.488Z,21.31
2022-08-27T18:40:43.498Z,21.30
2022-08-27T18:43:10.874Z,21.28
2022-08-27T18:45:37.963Z,21.25
2022-08-27T18:48:12.806Z,21.21
2022-08-27T18:50:44.209Z,21.14
2022-08-27T18:53:10.998Z,21.07
2022-08-27T18:55:37.604Z,21.06
2022-08-27T18:58:04.367Z,20.99
2022-08-27T19:00:31.008Z,20.90
2022-08-27T19:02:57.628Z,20.82
2022-08-27T19:05:26.750Z,20.79
2022-08-27T19:07:53.980Z,20.75
2022-08-27T19:10:20.910Z,20.71
2022-08-27T19:12:47.885Z,20.67
2022-08-27T19:15:15.320Z,20.65
2022-08-27T19:17:45.552Z,20.65
2022-08-27T19:20:12.184Z,20.64
2022-08-27T19:22:38.957Z,20.62
2022-08-27T19:25:07.541Z,20.61
2022-08-27T19:27:35.704Z,20.56
2022-08-27T19:30:02.784Z,20.50
2022-08-27T19:32:30.204Z,20.40
2022-08-27T19:34:56.790Z,20.37
2022-08-27T19:37:27.277Z,20.32
2022-08-27T19:39:53.883Z,20.27
2022-08-27T19:42:20.531Z,20.21
2022-08-27T19:44:47.513Z,20.16
2022-08-27T19:47:16.896Z,20.12
2022-08-27T19:49:49.801Z,20.10
2022-08-27T19:52:16.414Z,20.10
2022-08-27T19:55:03.330Z,20.12
2022-08-27T19:57:29.631Z,20.09
2022-08-27T19:59:56.193Z,19.99
2022-08-27T20:02:23.576Z,19.92
2022-08-27T20:05:14.188Z,19.88
2022-08-27T20:07:36.871Z,19.86
2022-08-27T20:10:08.506Z,19.86
2022-08-27T20:12:35.455Z,19.89
2022-08-27T20:15:01.986Z,19.90
2022-08-27T20:17:28.606Z,19.90
2022-08-27T20:19:57.058Z,19.84
2022-08-27T20:22:23.746Z,19.83
2022-08-27T20:24:50.378Z,19.82
2022-08-27T20:27:16.923Z,19.78
2022-08-27T20:29:43.470Z,19.71
2022-08-27T20:32:10.072Z,19.66
2022-08-27T20:34:37.530Z,19.64
2022-08-27T20:37:07.937Z,19.64
2022-08-27T20:39:34.574Z,19.65
2022-08-27T20:42:01.151Z,19.64
2022-08-27T20:44:27.734Z,19.64
2022-08-27T20:46:57.884Z,19.60
2022-08-27T20:49:24.438Z,19.56
2022-08-27T20:52:03.133Z,19.57
2022-08-27T20:54:31.650Z,19.61
2022-08-27T20:56:58.649Z,19.58
2022-08-27T20:59:44.006Z,19.54
2022-08-27T21:02:13.075Z,19.52
2022-08-27T21:04:43.647Z,19.49
2022-08-27T21:07:10.238Z,19.45
2022-08-27T21:09:51.878Z,19.44
2022-08-27T21:12:25.468Z,19.41
2022-08-27T21:14:55.747Z,19.38
2022-08-27T21:17:24.882Z,19.36
2022-08-27T21:19:52.545Z,19.37
2022-08-27T21:22:20.042Z,19.39
2022-08-27T21:24:47.585Z,19.35
2022-08-27T21:27:15.451Z,19.29
2022-08-27T21:29:44.554Z,19.25
2022-08-27T21:32:11.367Z,19.25
2022-08-27T21:34:37.923Z,19.23
2022-08-27T21:37:04.902Z,19.20
2022-08-27T21:39:32.859Z,19.16
2022-08-27T21:42:00.786Z,19.16
2022-08-27T21:44:28.063Z,19.17
2022-08-27T21:46:54.811Z,19.14
2022-08-27T21:49:21.401Z,19.15
2022-08-27T21:51:48.036Z,19.17
2022-08-27T21:54:14.910Z,19.14
2022-08-27T21:56:43.000Z,19.13
2022-08-27T21:59:09.666Z,19.10
2022-08-27T22:01:36.870Z,19.06
2022-08-27T22:04:03.870Z,19.01
2022-08-27T22:06:30.544Z,18.97
2022-08-27T22:08:57.139Z,18.92
2022-08-27T22:11:24.635Z,18.87
2022-08-27T22:13:52.298Z,18.82
2022-08-27T22:16:19.483Z,18.81
2022-08-27T22:18:46.226Z,18.79
2022-08-27T22:21:13.431Z,18.81
2022-08-27T22:23:44.799Z,18.84
2022-08-27T22:26:12.002Z,18.83
2022-08-27T22:28:38.627Z,18.79
2022-08-27T22:31:07.285Z,18.75
2022-08-27T22:33:34.214Z,18.68
2022-08-27T22:36:01.234Z,18.64
2022-08-27T22:38:27.896Z,18.65
2022-08-27T22:40:55.103Z,18.63
2022-08-27T22:43:21.723Z,18.62
2022-08-27T22:45:48.269Z,18.59
2022-08-27T22:48:14.889Z,18.56
2022-08-27T22:50:41.610Z,18.49
2022-08-27T22:53:08.950Z,18.45
2022-08-27T22:55:36.610Z,18.46
2022-08-27T22:58:03.769Z,18.45
2022-08-27T23:00:34.572Z,18.46
2022-08-27T23:03:05.572Z,18.45
2022-08-27T23:05:40.402Z,18.44
2022-08-27T23:08:11.060Z,18.43
2022-08-27T23:10:38.230Z,18.42
2022-08-27T23:13:06.931Z,18.42
2022-08-27T23:15:33.984Z,18.40
2022-08-27T23:18:01.665Z,18.39
2022-08-27T23:20:28.854Z,18.40
2022-08-27T23:22:55.974Z,18.40
2022-08-27T23:25:43.406Z,18.40
2022-08-27T23:28:14.443Z,18.40
2022-08-27T23:30:41.715Z,18.35
2022-08-27T23:33:08.246Z,18.28
2022-08-27T23:35:35.341Z,18.24
2022-08-27T23:38:01.890Z,18.27
2022-08-27T23:40:28.655Z,18.27
2022-08-27T23:42:55.262Z,18.25
2022-08-27T23:45:24.645Z,18.24
2022-08-27T23:47:51.683Z,18.20
2022-08-27T23:50:18.419Z,18.17
2022-08-27T23:52:45.029Z,18.10
2022-08-27T23:55:11.996Z,18.05
2022-08-27T23:57:39.812Z,18.00
